createdAt,value
2018-01-16T00:00:43.860Z,74.30
2018-01-16T00:03:12.141Z,73.80
2018-01-16T00:05:41.223Z,74.50
2018-01-16T00:08:09.523Z,76.10
2018-01-16T00:10:37.771Z,75.40
2018-01-16T00:13:06.052Z,74.90
2018-01-16T00:15:34.333Z,75.30
2018-01-16T00:18:02.582Z,75.10
2018-01-16T00:20:30.879Z,74.00
2018-01-16T00:22:59.357Z,74.60
2018-01-16T00:25:27.597Z,74.90
2018-01-16T00:27:55.904Z,74.60
2018-01-16T00:30:24.152Z,74.50
2018-01-16T00:32:52.383Z,74.70
2018-01-16T00:35:20.635Z,74.40
2018-01-16T00:37:48.916Z,74.10
2018-01-16T00:40:17.206Z,73.70
2018-01-16T00:42:45.480Z,74.40
2018-01-16T00:45:13.739Z,74.20
2018-01-16T00:47:42.023Z,75.10
2018-01-16T00:50:10.285Z,74.90
2018-01-16T00:52:39.295Z,74.90
2018-01-16T00:55:08.231Z,74.90
2018-01-16T00:57:36.527Z,74.70
2018-01-16T01:00:04.762Z,73.60
2018-01-16T01:02:33.040Z,74.10
2018-01-16T01:05:01.312Z,74.10
2018-01-16T01:07:29.552Z,74.30
2018-01-16T01:09:57.850Z,75.30
2018-01-16T01:12:26.451Z,75.20
2018-01-16T01:14:54.725Z,75.20
2018-01-16T01:17:22.989Z,75.20
2018-01-16T01:19:51.216Z,75.60
2018-01-16T01:22:20.355Z,75.80
2018-01-16T01:24:48.584Z,74.80
2018-01-16T01:27:16.835Z,74.90
2018-01-16T01:29:45.111Z,74.40
2018-01-16T01:32:14.269Z,74.20
2018-01-16T01:34:43.303Z,74.00
2018-01-16T01:37:11.621Z,74.00
2018-01-16T01:39:39.886Z,74.80
2018-01-16T01:42:08.176Z,74.70
2018-01-16T01:44:36.453Z,74.90
2018-01-16T01:47:04.680Z,75.30
2018-01-16T01:49:33.848Z,75.20
2018-01-16T01:52:02.884Z,74.40
2018-01-16T01:54:32.018Z,74.40
2018-01-16T01:57:00.242Z,74.00
2018-01-16T01:59:28.473Z,73.80
2018-01-16T02:01:57.492Z,73.50
2018-01-16T02:04:25.720Z,73.70
2018-01-16T02:06:55.083Z,73.30
2018-01-16T02:09:23.354Z,73.20
2018-01-16T02:11:51.617Z,73.60
2018-01-16T02:14:20.410Z,73.80
2018-01-16T02:16:49.500Z,74.00
2018-01-16T02:19:18.515Z,74.10
2018-01-16T02:21:47.080Z,74.00
2018-01-16T02:24:16.104Z,73.60
2018-01-16T02:26:45.266Z,73.60
2018-01-16T02:29:14.306Z,74.00
2018-01-16T02:31:42.541Z,74.00
2018-01-16T02:34:11.577Z,73.90
2018-01-16T02:36:39.859Z,73.90
2018-01-16T02:39:08.080Z,73.70
2018-01-16T02:41:37.168Z,74.40
2018-01-16T02:44:05.390Z,73.80
2018-01-16T02:46:33.654Z,73.70
2018-01-16T02:49:01.935Z,74.20
2018-01-16T02:51:30.218Z,74.10
2018-01-16T02:53:58.457Z,74.60
2018-01-16T02:56:27.467Z,74.60
2018-01-16T02:58:56.537Z,75.30
2018-01-16T03:01:24.768Z,75.30
2018-01-16T03:03:53.017Z,75.30
2018-01-16T03:06:22.016Z,75.20
2018-01-16T03:08:51.047Z,75.80
2018-01-16T03:11:20.117Z,75.60
2018-01-16T03:13:48.358Z,75.60
2018-01-16T03:16:17.357Z,77.50
2018-01-16T03:18:46.967Z,75.50
2018-01-16T03:21:15.976Z,75.30
2018-01-16T03:23:44.816Z,75.30
2018-01-16T03:26:13.051Z,75.10
2018-01-16T03:28:41.323Z,76.40
2018-01-16T03:31:09.604Z,76.50
2018-01-16T03:33:37.823Z,76.20
2018-01-16T03:36:06.123Z,75.30
2018-01-16T03:38:34.390Z,76.20
2018-01-16T03:41:02.681Z,76.20
2018-01-16T03:43:30.906Z,76.30
2018-01-16T03:45:59.171Z,76.20
2018-01-16T03:48:27.506Z,76.30
2018-01-16T03:50:55.748Z,76.00
2018-01-16T03:53:24.001Z,76.90
2018-01-16T03:55:52.416Z,76.60
2018-01-16T03:58:20.711Z,76.50
2018-01-16T04:00:49.109Z,76.40
2018-01-16T04:03:18.183Z,76.90
2018-01-16T04:05:46.412Z,76.20
2018-01-16T04:08:14.662Z,75.80
2018-01-16T04:10:42.885Z,75.60
2018-01-16T04:13:11.156Z,76.60
2018-01-16T04:15:39.443Z,75.00
2018-01-16T04:18:07.740Z,75.70
2018-01-16T04:20:36.049Z,75.50
2018-01-16T04:23:04.324Z,75.20
2018-01-16T04:25:33.360Z,75.70
2018-01-16T04:28:01.613Z,75.60
2018-01-16T04:30:29.935Z,75.40
2018-01-16T04:32:58.184Z,74.80
2018-01-16T04:35:26.420Z,75.40
2018-01-16T04:37:55.497Z,75.50
2018-01-16T04:40:23.753Z,76.10
2018-01-16T04:42:51.993Z,75.90
2018-01-16T04:45:20.240Z,74.80
2018-01-16T04:47:49.253Z,76.20
2018-01-16T04:50:18.337Z,76.20
2018-01-16T04:52:47.848Z,76.20
2018-01-16T04:55:16.847Z,76.00
2018-01-16T04:57:46.620Z,75.70
2018-01-16T05:00:14.911Z,75.70
2018-01-16T05:02:43.215Z,76.50
2018-01-16T05:05:12.255Z,76.30
2018-01-16T05:07:40.484Z,76.30
2018-01-16T05:10:09.570Z,76.30
2018-01-16T05:12:39.185Z,76.80
2018-01-16T05:15:08.194Z,76.70
2018-01-16T05:17:37.195Z,75.90
2018-01-16T05:20:05.472Z,75.90
2018-01-16T05:22:33.757Z,77.50
2018-01-16T05:25:01.993Z,77.00
2018-01-16T05:27:32.043Z,79.00
2018-01-16T05:30:00.281Z,77.70
2018-01-16T05:32:28.520Z,76.50
2018-01-16T05:34:56.778Z,77.10
2018-01-16T05:37:25.109Z,76.70
2018-01-16T05:39:55.027Z,76.70
2018-01-16T05:42:24.116Z,76.80
2018-01-16T05:44:53.136Z,77.00
2018-01-16T05:47:23.062Z,76.30
2018-01-16T05:49:52.061Z,76.40
2018-01-16T05:52:20.320Z,76.40
2018-01-16T05:54:49.328Z,77.00
2018-01-16T05:57:17.644Z,76.80
2018-01-16T05:59:45.928Z,77.00
2018-01-16T06:02:14.169Z,77.10
2018-01-16T06:04:42.474Z,76.50
2018-01-16T06:07:10.766Z,76.70
2018-01-16T06:09:39.028Z,76.40
2018-01-16T06:12:07.325Z,76.50
2018-01-16T06:14:35.563Z,76.50
2018-01-16T06:17:03.849Z,76.60
2018-01-16T06:19:32.151Z,76.40
2018-01-16T06:22:00.415Z,76.70
2018-01-16T06:24:28.734Z,76.80
2018-01-16T06:26:56.956Z,76.50
2018-01-16T06:29:25.226Z,76.70
2018-01-16T06:31:53.496Z,76.80
2018-01-16T06:34:21.758Z,77.10
2018-01-16T06:36:50.798Z,76.80
2018-01-16T06:39:19.035Z,76.70
2018-01-16T06:41:47.349Z,76.70
2018-01-16T06:44:15.628Z,76.60
2018-01-16T06:46:43.902Z,77.50
2018-01-16T06:49:12.144Z,78.20
2018-01-16T06:51:40.395Z,77.90
2018-01-16T06:54:08.691Z,78.00
2018-01-16T06:56:36.962Z,77.90
2018-01-16T06:59:06.022Z,78.10
2018-01-16T07:01:34.297Z,78.10
2018-01-16T07:04:02.547Z,78.50
2018-01-16T07:06:31.514Z,77.20
2018-01-16T07:08:59.794Z,77.60
2018-01-16T07:11:28.840Z,77.60
2018-01-16T07:13:57.069Z,77.60
2018-01-16T07:16:25.380Z,78.10
2018-01-16T07:18:53.621Z,78.50
2018-01-16T07:21:21.890Z,77.90
2018-01-16T07:23:50.913Z,78.20
2018-01-16T07:26:19.921Z,78.10
2018-01-16T07:28:48.172Z,78.30
2018-01-16T07:31:16.426Z,78.10
2018-01-16T07:33:45.427Z,78.30
2018-01-16T07:36:13.722Z,78.30
2018-01-16T07:38:41.998Z,79.40
2018-01-16T07:41:10.250Z,80.00
2018-01-16T07:43:39.248Z,79.00
2018-01-16T07:46:08.315Z,79.30
2018-01-16T07:48:36.553Z,79.20
2018-01-16T07:51:04.787Z,79.50
2018-01-16T07:53:33.809Z,78.50
2018-01-16T07:56:02.092Z,78.50
2018-01-16T07:58:30.391Z,78.50
2018-01-16T08:00:58.633Z,78.10
2018-01-16T08:03:27.675Z,78.40
2018-01-16T08:05:55.950Z,78.40
2018-01-16T08:08:24.179Z,78.50
2018-01-16T08:10:52.516Z,77.60
2018-01-16T08:13:20.791Z,77.30
2018-01-16T08:15:49.789Z,77.60
2018-01-16T08:18:18.040Z,77.20
2018-01-16T08:20:46.301Z,77.10
2018-01-16T08:23:14.606Z,76.50
2018-01-16T08:25:42.894Z,76.60
2018-01-16T08:28:11.685Z,76.70
2018-01-16T08:30:39.967Z,76.80
2018-01-16T08:33:08.248Z,76.30
2018-01-16T08:35:36.545Z,76.10
2018-01-16T08:38:05.840Z,75.70
2018-01-16T08:40:34.155Z,76.10
2018-01-16T08:43:02.420Z,76.20
2018-01-16T08:45:30.667Z,76.50
2018-01-16T08:47:58.907Z,76.30
2018-01-16T08:50:27.199Z,76.30
2018-01-16T08:52:55.445Z,76.30
2018-01-16T08:55:23.686Z,76.00
2018-01-16T08:57:52.705Z,76.70
2018-01-16T09:00:20.981Z,76.60
2018-01-16T09:02:50.087Z,76.30
2018-01-16T09:05:18.382Z,76.60
2018-01-16T09:07:46.643Z,76.90
2018-01-16T09:10:14.922Z,77.30
2018-01-16T09:12:43.208Z,77.40
2018-01-16T09:15:11.499Z,76.90
2018-01-16T09:17:39.776Z,77.00
2018-01-16T09:20:08.051Z,76.50
2018-01-16T09:22:36.312Z,76.80
2018-01-16T09:25:04.578Z,76.60
2018-01-16T09:27:32.866Z,77.00
2018-01-16T09:30:01.097Z,76.90
2018-01-16T09:32:30.183Z,77.30
2018-01-16T09:34:58.462Z,77.20
2018-01-16T09:37:26.690Z,77.50
2018-01-16T09:39:54.952Z,77.80
2018-01-16T09:42:23.258Z,79.00
2018-01-16T09:44:51.875Z,78.00
2018-01-16T09:47:20.155Z,77.80
2018-01-16T09:49:48.380Z,78.80
2018-01-16T09:52:16.717Z,77.80
2018-01-16T09:54:44.938Z,77.70
2018-01-16T09:57:13.197Z,77.00
2018-01-16T09:59:41.480Z,77.10
2018-01-16T10:02:09.717Z,76.90
2018-01-16T10:04:38.777Z,77.20
2018-01-16T10:07:07.051Z,77.10
2018-01-16T10:09:35.295Z,76.90
2018-01-16T10:12:03.579Z,76.70
2018-01-16T10:14:31.836Z,76.50
2018-01-16T10:17:00.888Z,76.40
2018-01-16T10:19:29.159Z,76.40
2018-01-16T10:21:57.407Z,75.50
2018-01-16T10:24:25.646Z,75.40
2018-01-16T10:26:54.656Z,74.70
2018-01-16T10:29:22.938Z,74.60
2018-01-16T10:31:51.554Z,74.50
2018-01-16T10:34:19.843Z,74.30
2018-01-16T10:36:48.140Z,74.50
2018-01-16T10:39:16.449Z,74.50
2018-01-16T10:41:46.260Z,74.50
2018-01-16T10:44:15.276Z,74.90
2018-01-16T10:46:43.570Z,74.90
2018-01-16T10:49:11.856Z,74.80
2018-01-16T10:51:40.136Z,74.90
2018-01-16T10:54:08.411Z,74.30
2018-01-16T10:56:36.695Z,74.70
2018-01-16T10:59:04.939Z,75.20
2018-01-16T11:01:33.239Z,74.20
2018-01-16T11:04:01.466Z,74.30
2018-01-16T11:06:30.620Z,74.50
2018-01-16T11:08:58.895Z,74.50
2018-01-16T11:11:27.128Z,74.60
2018-01-16T11:13:55.382Z,75.50
2018-01-16T11:16:23.658Z,74.60
2018-01-16T11:18:51.966Z,74.50
2018-01-16T11:21:21.663Z,74.40
2018-01-16T11:23:50.672Z,74.40
2018-01-16T11:26:18.936Z,74.40
2018-01-16T11:28:47.999Z,74.40
2018-01-16T11:31:16.219Z,74.40
2018-01-16T11:33:44.504Z,74.20
2018-01-16T11:36:12.804Z,73.90
2018-01-16T11:38:41.033Z,73.60
2018-01-16T11:41:10.056Z,74.20
2018-01-16T11:43:38.287Z,73.20
2018-01-16T11:46:06.575Z,73.00
2018-01-16T11:48:35.588Z,72.70
2018-01-16T11:51:04.713Z,72.70
2018-01-16T11:53:32.993Z,72.80
2018-01-16T11:56:01.310Z,71.70
2018-01-16T11:58:29.572Z,72.50
2018-01-16T12:00:57.852Z,72.30
2018-01-16T12:03:26.104Z,72.50
2018-01-16T12:05:54.364Z,72.50
2018-01-16T12:08:22.606Z,71.40
2018-01-16T12:10:51.635Z,72.00
2018-01-16T12:13:19.876Z,72.00
2018-01-16T12:15:48.926Z,73.20
2018-01-16T12:18:17.214Z,72.40
2018-01-16T12:20:45.442Z,72.40
2018-01-16T12:23:13.740Z,72.60
2018-01-16T12:25:42.012Z,72.80
2018-01-16T12:28:10.236Z,72.90
2018-01-16T12:30:38.491Z,73.00
2018-01-16T12:33:07.056Z,72.10
2018-01-16T12:35:35.353Z,70.60
2018-01-16T12:38:03.616Z,70.70
2018-01-16T12:40:32.767Z,70.70
2018-01-16T12:43:01.812Z,70.60
2018-01-16T12:45:30.033Z,70.60
2018-01-16T12:47:59.101Z,71.40
2018-01-16T12:50:27.335Z,71.40
2018-01-16T12:52:55.608Z,71.50
2018-01-16T12:55:23.854Z,72.40
2018-01-16T12:57:52.113Z,73.70
2018-01-16T13:00:20.410Z,72.30
2018-01-16T13:02:48.647Z,71.90
2018-01-16T13:05:16.893Z,71.30
2018-01-16T13:07:45.228Z,71.80
2018-01-16T13:10:13.447Z,71.90
2018-01-16T13:12:41.684Z,71.80
2018-01-16T13:15:09.964Z,71.90
2018-01-16T13:17:38.258Z,72.10
2018-01-16T13:20:07.338Z,73.00
2018-01-16T13:22:35.613Z,72.90
2018-01-16T13:25:03.896Z,72.90
2018-01-16T13:27:32.146Z,72.60
2018-01-16T13:30:00.412Z,73.00
2018-01-16T13:32:29.405Z,73.50
2018-01-16T13:34:57.657Z,73.40
2018-01-16T13:37:25.902Z,73.40
2018-01-16T13:39:54.916Z,73.30
2018-01-16T13:42:24.160Z,72.60
2018-01-16T13:44:52.435Z,72.70
2018-01-16T13:47:20.731Z,72.60
2018-01-16T13:49:48.965Z,72.10
2018-01-16T13:52:17.274Z,71.50
2018-01-16T13:54:45.553Z,71.10
2018-01-16T13:57:13.797Z,71.00
2018-01-16T13:59:42.085Z,70.60
2018-01-16T14:02:10.309Z,69.70
2018-01-16T14:04:39.375Z,68.20
2018-01-16T14:07:07.625Z,68.90
2018-01-16T14:09:36.622Z,68.00
2018-01-16T14:12:04.873Z,68.60
2018-01-16T14:14:33.152Z,68.90
2018-01-16T14:17:02.215Z,67.60
2018-01-16T14:19:30.723Z,67.60
2018-01-16T14:21:59.792Z,67.30
2018-01-16T14:24:28.063Z,67.30
2018-01-16T14:26:56.426Z,67.40
2018-01-16T14:29:24.715Z,67.20
2018-01-16T14:31:52.960Z,67.80
2018-01-16T14:34:21.220Z,66.70
2018-01-16T14:36:49.461Z,67.10
2018-01-16T14:39:18.527Z,67.80
2018-01-16T14:41:46.803Z,67.00
2018-01-16T14:44:15.035Z,67.50
2018-01-16T14:46:43.331Z,67.10
2018-01-16T14:49:11.611Z,67.70
2018-01-16T14:51:39.869Z,67.30
2018-01-16T14:54:08.101Z,66.10
2018-01-16T14:56:37.220Z,66.90
2018-01-16T14:59:06.274Z,66.30
2018-01-16T15:01:36.019Z,66.20
2018-01-16T15:04:05.804Z,66.20
2018-01-16T15:06:34.076Z,65.60
2018-01-16T15:09:03.207Z,65.50
2018-01-16T15:11:32.212Z,65.20
2018-01-16T15:14:01.268Z,66.20
2018-01-16T15:16:29.539Z,66.20
2018-01-16T15:18:57.807Z,65.80
2018-01-16T15:21:26.098Z,65.60
2018-01-16T15:23:54.325Z,65.90
2018-01-16T15:26:23.402Z,66.10
2018-01-16T15:28:51.638Z,65.40
2018-01-16T15:31:19.882Z,65.90
2018-01-16T15:33:48.203Z,66.00
2018-01-16T15:36:16.476Z,66.40
2018-01-16T15:38:44.771Z,65.20
2018-01-16T15:41:13.021Z,65.90
2018-01-16T15:43:41.280Z,65.60
2018-01-16T15:46:09.589Z,65.50
2018-01-16T15:48:37.879Z,66.30
2018-01-16T15:51:06.148Z,65.90
2018-01-16T15:53:34.422Z,65.80
2018-01-16T15:56:02.701Z,65.60
2018-01-16T15:58:30.999Z,65.10
2018-01-16T16:00:59.312Z,65.50
2018-01-16T16:03:27.561Z,66.00
2018-01-16T16:05:55.791Z,65.20
2018-01-16T16:08:24.090Z,67.10
2018-01-16T16:10:52.370Z,65.90
2018-01-16T16:13:20.609Z,66.00
2018-01-16T16:15:48.893Z,65.10
2018-01-16T16:18:17.201Z,66.10
2018-01-16T16:20:46.250Z,66.20
2018-01-16T16:23:14.498Z,66.10
2018-01-16T16:25:43.508Z,66.30
2018-01-16T16:28:11.793Z,66.30
2018-01-16T16:30:40.045Z,66.60
2018-01-16T16:33:09.158Z,66.80
2018-01-16T16:35:38.222Z,67.00
2018-01-16T16:38:06.501Z,66.90
2018-01-16T16:40:34.883Z,67.30
2018-01-16T16:43:03.818Z,67.50
2018-01-16T16:45:32.395Z,67.70
2018-01-16T16:48:00.634Z,67.60
2018-01-16T16:50:28.870Z,67.70
2018-01-16T16:52:57.125Z,68.60
2018-01-16T16:55:25.374Z,68.00
2018-01-16T16:57:54.547Z,67.80
2018-01-16T17:00:24.346Z,67.40
2018-01-16T17:02:52.568Z,67.90
2018-01-16T17:05:21.636Z,67.70
2018-01-16T17:07:49.904Z,67.70
2018-01-16T17:10:18.203Z,67.90
2018-01-16T17:12:47.363Z,67.70
2018-01-16T17:15:15.623Z,67.60
2018-01-16T17:17:43.903Z,67.70
2018-01-16T17:20:12.193Z,67.70
2018-01-16T17:22:40.485Z,67.40
2018-01-16T17:25:08.736Z,67.60
2018-01-16T17:27:38.013Z,67.80
2018-01-16T17:30:07.072Z,67.70
2018-01-16T17:32:35.307Z,67.70
2018-01-16T17:35:04.618Z,67.80
2018-01-16T17:37:32.887Z,67.60
2018-01-16T17:40:01.160Z,67.40
2018-01-16T17:42:29.453Z,67.80
2018-01-16T17:44:57.719Z,67.90
2018-01-16T17:47:26.904Z,67.50
2018-01-16T17:49:55.137Z,67.60
2018-01-16T17:52:24.289Z,67.50
2018-01-16T17:54:52.517Z,67.30
2018-01-16T17:57:20.765Z,66.50
2018-01-16T17:59:49.052Z,67.40
2018-01-16T18:02:17.333Z,66.80
2018-01-16T18:04:45.593Z,67.00
2018-01-16T18:07:13.832Z,67.20
2018-01-16T18:09:42.848Z,66.60
2018-01-16T18:12:11.115Z,66.50
2018-01-16T18:14:39.401Z,66.90
2018-01-16T18:17:07.635Z,66.60
2018-01-16T18:19:36.691Z,66.40
2018-01-16T18:22:04.971Z,66.40
2018-01-16T18:24:33.204Z,66.10
2018-01-16T18:27:02.328Z,66.70
2018-01-16T18:29:30.599Z,65.00
2018-01-16T18:31:58.873Z,66.60
2018-01-16T18:34:27.156Z,66.10
2018-01-16T18:36:55.446Z,65.30
2018-01-16T18:39:23.756Z,65.40
2018-01-16T18:41:52.038Z,65.50
2018-01-16T18:44:21.091Z,66.80
2018-01-16T18:46:49.342Z,66.10
2018-01-16T18:49:17.679Z,66.50
2018-01-16T18:51:45.974Z,65.70
2018-01-16T18:54:14.209Z,65.90
2018-01-16T18:56:42.451Z,66.10
2018-01-16T18:59:10.701Z,65.90
2018-01-16T19:01:39.757Z,65.50
2018-01-16T19:04:08.052Z,65.50
2018-01-16T19:06:36.287Z,65.70
2018-01-16T19:09:04.627Z,65.60
2018-01-16T19:11:33.676Z,64.80
2018-01-16T19:14:01.956Z,64.70
2018-01-16T19:16:30.267Z,65.80
2018-01-16T19:18:58.523Z,65.40
2018-01-16T19:21:26.779Z,65.30
2018-01-16T19:23:55.063Z,65.60
2018-01-16T19:26:23.316Z,64.40
2018-01-16T19:28:51.611Z,64.50
2018-01-16T19:31:19.905Z,64.50
2018-01-16T19:33:48.229Z,63.70
2018-01-16T19:36:17.323Z,64.60
2018-01-16T19:38:46.370Z,63.60
2018-01-16T19:41:14.654Z,63.50
2018-01-16T19:43:42.953Z,64.50
2018-01-16T19:46:11.248Z,63.60
2018-01-16T19:48:40.078Z,64.00
2018-01-16T19:51:08.421Z,64.30
2018-01-16T19:53:37.459Z,64.30
2018-01-16T19:56:05.749Z,64.20
2018-01-16T19:58:35.640Z,63.90
2018-01-16T20:01:03.954Z,63.80
2018-01-16T20:03:32.258Z,64.30
2018-01-16T20:06:02.283Z,64.20
2018-01-16T20:08:32.255Z,64.70
2018-01-16T20:11:00.538Z,64.60
2018-01-16T20:13:28.829Z,64.20
2018-01-16T20:15:57.065Z,64.20
2018-01-16T20:18:25.371Z,63.50
2018-01-16T20:20:54.087Z,63.80
2018-01-16T20:23:23.248Z,64.20
2018-01-16T20:25:52.100Z,63.60
2018-01-16T20:28:20.341Z,64.00
2018-01-16T20:30:48.625Z,63.60
2018-01-16T20:33:16.855Z,63.30
2018-01-16T20:35:45.157Z,63.70
2018-01-16T20:38:13.473Z,63.20
2018-01-16T20:40:42.523Z,63.70
2018-01-16T20:43:10.761Z,63.60
2018-01-16T20:45:39.051Z,64.00
2018-01-16T20:48:07.382Z,63.60
2018-01-16T20:50:36.397Z,63.30
2018-01-16T20:53:04.653Z,63.20
2018-01-16T20:55:33.768Z,63.50
2018-01-16T20:58:02.033Z,63.10
2018-01-16T21:00:30.324Z,63.20
2018-01-16T21:02:59.337Z,63.30
2018-01-16T21:05:27.612Z,63.30
2018-01-16T21:07:55.864Z,63.10
2018-01-16T21:10:24.923Z,63.80
2018-01-16T21:12:53.176Z,63.80
2018-01-16T21:15:21.415Z,63.90
2018-01-16T21:17:49.699Z,63.70
2018-01-16T21:20:17.998Z,64.10
2018-01-16T21:22:46.271Z,63.90
2018-01-16T21:25:14.548Z,64.00
2018-01-16T21:27:42.827Z,63.40
2018-01-16T21:30:11.116Z,62.90
2018-01-16T21:32:39.369Z,62.90
2018-01-16T21:35:08.525Z,63.10
2018-01-16T21:37:36.785Z,63.10
2018-01-16T21:40:05.068Z,63.40
2018-01-16T21:42:33.319Z,63.40
2018-01-16T21:45:01.573Z,62.80
2018-01-16T21:47:30.588Z,63.10
2018-01-16T21:49:58.821Z,63.10
2018-01-16T21:52:27.852Z,63.20
2018-01-16T21:54:56.098Z,63.20
2018-01-16T21:57:25.160Z,63.40
2018-01-16T21:59:53.399Z,63.40
2018-01-16T22:02:21.675Z,63.00
2018-01-16T22:04:49.914Z,63.60
2018-01-16T22:07:18.934Z,63.40
2018-01-16T22:09:47.482Z,63.30
2018-01-16T22:12:15.807Z,63.70
2018-01-16T22:14:44.032Z,63.80
2018-01-16T22:17:12.296Z,63.60
2018-01-16T22:19:40.599Z,63.90
2018-01-16T22:22:08.848Z,64.00
2018-01-16T22:24:37.112Z,64.30
2018-01-16T22:27:05.344Z,64.00
2018-01-16T22:29:34.430Z,64.30
2018-01-16T22:32:03.048Z,64.30
2018-01-16T22:34:31.338Z,64.30
2018-01-16T22:36:59.590Z,64.30
2018-01-16T22:39:28.584Z,64.30
2018-01-16T22:41:56.886Z,64.30
2018-01-16T22:44:25.128Z,64.70
2018-01-16T22:46:54.192Z,64.40
2018-01-16T22:49:23.235Z,64.20
2018-01-16T22:51:51.482Z,64.20
2018-01-16T22:54:19.718Z,64.00
2018-01-16T22:56:48.002Z,63.80
2018-01-16T22:59:16.298Z,64.00
2018-01-16T23:01:45.365Z,64.20
2018-01-16T23:04:13.609Z,64.10
2018-01-16T23:06:41.910Z,63.90
2018-01-16T23:09:10.169Z,63.90
2018-01-16T23:11:38.451Z,64.00
2018-01-16T23:14:07.573Z,63.50
2018-01-16T23:16:35.829Z,63.70
2018-01-16T23:19:04.063Z,63.70
2018-01-16T23:21:33.085Z,63.50
2018-01-16T23:24:01.320Z,63.50
2018-01-16T23:26:29.604Z,63.40
2018-01-16T23:28:57.853Z,63.60
2018-01-16T23:31:26.147Z,63.40
2018-01-16T23:33:54.428Z,63.50
2018-01-16T23:36:22.714Z,63.30
2018-01-16T23:38:50.986Z,63.70
2018-01-16T23:41:20.202Z,64.00
2018-01-16T23:43:49.205Z,63.70
2018-01-16T23:46:17.460Z,63.70
2018-01-16T23:48:46.464Z,64.00
2018-01-16T23:51:15.523Z,63.80
2018-01-16T23:53:43.811Z,63.80
2018-01-16T23:56:12.202Z,64.10
2018-01-16T23:58:40.473Z,64.20
